Terminal Aerodrome Forecast
Issued by NWS

Home | Current Version | Previous Version | Text Only | Print | Product List | Glossary Off
Versions: 1 2 3 4 5 6 7 8 9 10 11 12 13 14

000
FTUS45 KGGW 132320
TAFOLF
TAF
KOLF 132320Z 1400/1424 12010KT P6SM SKC
     FM140800 08007KT P6SM FEW160
     FM141200 08007KT P6SM BKN110
     FM141400 11008KT P6SM VCSH BKN080
     FM141800 15008KT P6SM VCSH OVC050
     FM142200 13007KT P6SM VCSH BKN020=

USA.gov is the U.S. government's official web portal to all federal, state and local government web resources and services.